sensor_id;sensor_type;location;lat;lon;timestamp;P1;durP1;ratioP1;P2;durP2;ratioP2
80320;SDS011;69633;47.066;15.450;2023-09-19T00:00:37;11.23;;;4.88;;
80320;SDS011;69633;47.066;15.450;2023-09-19T00:03:05;8.85;;;4.93;;
80320;SDS011;69633;47.066;15.450;2023-09-19T00:05:33;11.70;;;4.28;;
80320;SDS011;69633;47.066;15.450;2023-09-19T00:08:00;8.25;;;4.43;;
80320;SDS011;69633;47.066;15.450;2023-09-19T00:10:28;11.20;;;4.10;;
80320;SDS011;69633;47.066;15.450;2023-09-19T00:12:59;9.95;;;4.55;;
80320;SDS011;69633;47.066;15.450;2023-09-19T00:15:26;10.63;;;4.00;;
80320;SDS011;69633;47.066;15.450;2023-09-19T00:17:56;9.30;;;4.32;;
80320;SDS011;69633;47.066;15.450;2023-09-19T00:20:22;8.90;;;4.30;;
80320;SDS011;69633;47.066;15.450;2023-09-19T00:22:49;8.70;;;4.13;;
80320;SDS011;69633;47.066;15.450;2023-09-19T00:25:19;8.88;;;3.88;;
80320;SDS011;69633;47.066;15.450;2023-09-19T00:27:45;13.30;;;3.92;;
80320;SDS011;69633;47.066;15.450;2023-09-19T00:30:16;9.70;;;3.83;;
80320;SDS011;69633;47.066;15.450;2023-09-19T00:32:48;7.88;;;3.58;;
80320;SDS011;69633;47.066;15.450;2023-09-19T00:35:17;8.98;;;3.97;;
80320;SDS011;69633;47.066;15.450;2023-09-19T00:37:42;13.73;;;3.80;;
80320;SDS011;69633;47.066;15.450;2023-09-19T00:40:08;6.70;;;3.85;;
80320;SDS011;69633;47.066;15.450;2023-09-19T00:42:44;9.05;;;3.67;;
80320;SDS011;69633;47.066;15.450;2023-09-19T00:45:12;7.18;;;3.38;;
80320;SDS011;69633;47.066;15.450;2023-09-19T00:47:39;9.20;;;3.53;;
80320;SDS011;69633;47.066;15.450;2023-09-19T00:50:11;9.18;;;3.63;;
80320;SDS011;69633;47.066;15.450;2023-09-19T00:52:39;9.68;;;4.00;;
80320;SDS011;69633;47.066;15.450;2023-09-19T00:55:09;8.65;;;3.90;;
80320;SDS011;69633;47.066;15.450;2023-09-19T00:57:37;9.13;;;4.22;;
80320;SDS011;69633;47.066;15.450;2023-09-19T01:00:03;10.05;;;3.35;;
80320;SDS011;69633;47.066;15.450;2023-09-19T01:02:33;8.68;;;3.55;;
80320;SDS011;69633;47.066;15.450;2023-09-19T01:05:00;7.07;;;3.50;;
80320;SDS011;69633;47.066;15.450;2023-09-19T01:07:26;10.52;;;3.78;;
80320;SDS011;69633;47.066;15.450;2023-09-19T01:09:59;10.88;;;4.20;;
80320;SDS011;69633;47.066;15.450;2023-09-19T01:15:28;6.93;;;3.50;;
80320;SDS011;69633;47.066;15.450;2023-09-19T01:20:50;7.93;;;3.88;;
80320;SDS011;69633;47.066;15.450;2023-09-19T01:29:12;8.35;;;3.45;;
80320;SDS011;69633;47.066;15.450;2023-09-19T01:31:54;7.05;;;3.15;;
80320;SDS011;69633;47.066;15.450;2023-09-19T01:34:26;8.88;;;3.53;;
80320;SDS011;69633;47.066;15.450;2023-09-19T01:36:52;7.80;;;3.38;;
80320;SDS011;69633;47.066;15.450;2023-09-19T01:39:17;13.07;;;3.45;;
80320;SDS011;69633;47.066;15.450;2023-09-19T01:41:51;11.90;;;3.47;;
80320;SDS011;69633;47.066;15.450;2023-09-19T01:44:29;9.15;;;3.10;;
80320;SDS011;69633;47.066;15.450;2023-09-19T01:47:02;7.70;;;3.20;;
80320;SDS011;69633;47.066;15.450;2023-09-19T01:49:44;9.38;;;2.90;;
80320;SDS011;69633;47.066;15.450;2023-09-19T01:52:28;5.10;;;3.22;;
80320;SDS011;69633;47.066;15.450;2023-09-19T01:55:01;8.10;;;3.15;;
80320;SDS011;69633;47.066;15.450;2023-09-19T01:57:34;8.07;;;3.60;;
80320;SDS011;69633;47.066;15.450;2023-09-19T02:00:09;10.88;;;3.72;;
80320;SDS011;69633;47.066;15.450;2023-09-19T02:02:40;7.45;;;3.67;;
80320;SDS011;69633;47.066;15.450;2023-09-19T02:05:09;9.35;;;3.95;;
80320;SDS011;69633;47.066;15.450;2023-09-19T02:07:35;7.25;;;3.50;;
80320;SDS011;69633;47.066;15.450;2023-09-19T02:10:03;7.75;;;3.65;;
80320;SDS011;69633;47.066;15.450;2023-09-19T02:12:32;8.43;;;3.60;;
80320;SDS011;69633;47.066;15.450;2023-09-19T02:14:58;10.30;;;3.20;;
80320;SDS011;69633;47.066;15.450;2023-09-19T02:17:24;6.53;;;2.83;;
80320;SDS011;69633;47.066;15.450;2023-09-19T02:19:54;6.88;;;2.92;;
80320;SDS011;69633;47.066;15.450;2023-09-19T02:22:20;8.25;;;3.20;;
80320;SDS011;69633;47.066;15.450;2023-09-19T02:24:48;7.43;;;3.40;;
80320;SDS011;69633;47.066;15.450;2023-09-19T02:27:13;5.50;;;2.90;;
80320;SDS011;69633;47.066;15.450;2023-09-19T02:29:41;6.43;;;2.75;;
80320;SDS011;69633;47.066;15.450;2023-09-19T02:32:07;5.50;;;2.05;;
80320;SDS011;69633;47.066;15.450;2023-09-19T02:34:34;7.07;;;2.30;;
80320;SDS011;69633;47.066;15.450;2023-09-19T02:37:02;3.42;;;1.95;;
80320;SDS011;69633;47.066;15.450;2023-09-19T02:39:31;5.20;;;2.53;;
80320;SDS011;69633;47.066;15.450;2023-09-19T02:41:57;5.55;;;2.20;;
80320;SDS011;69633;47.066;15.450;2023-09-19T02:44:23;5.25;;;2.10;;
80320;SDS011;69633;47.066;15.450;2023-09-19T02:46:49;7.10;;;1.95;;
80320;SDS011;69633;47.066;15.450;2023-09-19T02:49:15;3.95;;;1.90;;
80320;SDS011;69633;47.066;15.450;2023-09-19T02:51:40;5.80;;;2.33;;
80320;SDS011;69633;47.066;15.450;2023-09-19T02:54:06;7.82;;;1.85;;
80320;SDS011;69633;47.066;15.450;2023-09-19T02:56:32;3.63;;;1.90;;
80320;SDS011;69633;47.066;15.450;2023-09-19T02:58:58;5.35;;;1.67;;
80320;SDS011;69633;47.066;15.450;2023-09-19T03:01:25;4.63;;;2.58;;
80320;SDS011;69633;47.066;15.450;2023-09-19T03:03:52;3.97;;;1.65;;
80320;SDS011;69633;47.066;15.450;2023-09-19T03:06:18;3.92;;;1.50;;
80320;SDS011;69633;47.066;15.450;2023-09-19T03:08:45;4.72;;;1.40;;
80320;SDS011;69633;47.066;15.450;2023-09-19T03:11:11;3.90;;;1.38;;
80320;SDS011;69633;47.066;15.450;2023-09-19T03:13:40;3.15;;;1.45;;
80320;SDS011;69633;47.066;15.450;2023-09-19T03:16:07;6.65;;;1.30;;
80320;SDS011;69633;47.066;15.450;2023-09-19T03:18:36;2.53;;;1.00;;
80320;SDS011;69633;47.066;15.450;2023-09-19T03:21:02;3.00;;;1.30;;
80320;SDS011;69633;47.066;15.450;2023-09-19T03:23:28;4.00;;;1.00;;
80320;SDS011;69633;47.066;15.450;2023-09-19T03:25:57;2.42;;;1.30;;
80320;SDS011;69633;47.066;15.450;2023-09-19T03:28:24;2.42;;;1.10;;
80320;SDS011;69633;47.066;15.450;2023-09-19T03:31:02;3.40;;;1.20;;
80320;SDS011;69633;47.066;15.450;2023-09-19T03:33:29;1.90;;;1.00;;
80320;SDS011;69633;47.066;15.450;2023-09-19T03:35:56;3.03;;;1.20;;
80320;SDS011;69633;47.066;15.450;2023-09-19T03:38:23;1.55;;;0.90;;
80320;SDS011;69633;47.066;15.450;2023-09-19T03:40:48;1.85;;;0.90;;
80320;SDS011;69633;47.066;15.450;2023-09-19T03:43:14;2.72;;;1.08;;
80320;SDS011;69633;47.066;15.450;2023-09-19T03:45:40;3.60;;;1.20;;
80320;SDS011;69633;47.066;15.450;2023-09-19T03:48:09;2.30;;;0.73;;
80320;SDS011;69633;47.066;15.450;2023-09-19T03:50:35;3.40;;;0.90;;
80320;SDS011;69633;47.066;15.450;2023-09-19T03:53:01;2.05;;;0.80;;
80320;SDS011;69633;47.066;15.450;2023-09-19T03:55:27;1.67;;;0.80;;
80320;SDS011;69633;47.066;15.450;2023-09-19T03:57:53;1.35;;;1.02;;
80320;SDS011;69633;47.066;15.450;2023-09-19T04:00:18;2.97;;;0.80;;
80320;SDS011;69633;47.066;15.450;2023-09-19T04:02:48;1.63;;;0.95;;
80320;SDS011;69633;47.066;15.450;2023-09-19T04:05:14;1.60;;;0.90;;
80320;SDS011;69633;47.066;15.450;2023-09-19T04:07:39;3.95;;;1.20;;
80320;SDS011;69633;47.066;15.450;2023-09-19T04:10:05;1.65;;;1.00;;
80320;SDS011;69633;47.066;15.450;2023-09-19T04:12:33;3.08;;;1.08;;
80320;SDS011;69633;47.066;15.450;2023-09-19T04:14:59;2.83;;;1.10;;
80320;SDS011;69633;47.066;15.450;2023-09-19T04:17:24;3.67;;;1.10;;
80320;SDS011;69633;47.066;15.450;2023-09-19T04:19:50;2.38;;;1.10;;
80320;SDS011;69633;47.066;15.450;2023-09-19T04:22:15;2.72;;;0.95;;
80320;SDS011;69633;47.066;15.450;2023-09-19T04:24:41;2.72;;;1.30;;
80320;SDS011;69633;47.066;15.450;2023-09-19T04:27:06;2.40;;;1.40;;
80320;SDS011;69633;47.066;15.450;2023-09-19T04:29:32;2.28;;;1.30;;
80320;SDS011;69633;47.066;15.450;2023-09-19T04:31:58;2.13;;;1.10;;
80320;SDS011;69633;47.066;15.450;2023-09-19T04:34:23;2.88;;;0.93;;
80320;SDS011;69633;47.066;15.450;2023-09-19T04:36:49;3.67;;;1.10;;
80320;SDS011;69633;47.066;15.450;2023-09-19T04:39:15;2.88;;;1.05;;
80320;SDS011;69633;47.066;15.450;2023-09-19T04:41:42;3.10;;;1.10;;
80320;SDS011;69633;47.066;15.450;2023-09-19T04:44:07;2.83;;;1.20;;
80320;SDS011;69633;47.066;15.450;2023-09-19T04:46:36;2.47;;;1.00;;
80320;SDS011;69633;47.066;15.450;2023-09-19T04:49:01;3.45;;;1.00;;
80320;SDS011;69633;47.066;15.450;2023-09-19T04:51:27;2.92;;;1.00;;
80320;SDS011;69633;47.066;15.450;2023-09-19T04:53:57;2.88;;;1.15;;
80320;SDS011;69633;47.066;15.450;2023-09-19T04:56:23;5.10;;;1.30;;
80320;SDS011;69633;47.066;15.450;2023-09-19T04:58:49;3.63;;;1.20;;
80320;SDS011;69633;47.066;15.450;2023-09-19T05:01:14;4.03;;;1.30;;
80320;SDS011;69633;47.066;15.450;2023-09-19T05:03:40;2.00;;;1.02;;
80320;SDS011;69633;47.066;15.450;2023-09-19T05:06:05;2.58;;;1.10;;
80320;SDS011;69633;47.066;15.450;2023-09-19T05:08:31;2.53;;;1.05;;
80320;SDS011;69633;47.066;15.450;2023-09-19T05:10:56;3.75;;;1.30;;
80320;SDS011;69633;47.066;15.450;2023-09-19T05:13:22;2.95;;;1.40;;
80320;SDS011;69633;47.066;15.450;2023-09-19T05:15:50;3.58;;;1.30;;
80320;SDS011;69633;47.066;15.450;2023-09-19T05:18:16;2.65;;;1.30;;
80320;SDS011;69633;47.066;15.450;2023-09-19T05:20:41;5.60;;;1.40;;
80320;SDS011;69633;47.066;15.450;2023-09-19T05:23:08;5.07;;;1.52;;
80320;SDS011;69633;47.066;15.450;2023-09-19T05:25:34;6.28;;;1.60;;
80320;SDS011;69633;47.066;15.450;2023-09-19T05:28:07;4.60;;;1.50;;
80320;SDS011;69633;47.066;15.450;2023-09-19T05:30:34;4.72;;;1.40;;
80320;SDS011;69633;47.066;15.450;2023-09-19T05:33:08;3.60;;;1.42;;
80320;SDS011;69633;47.066;15.450;2023-09-19T05:35:34;5.28;;;1.60;;
80320;SDS011;69633;47.066;15.450;2023-09-19T05:38:02;2.35;;;1.13;;
80320;SDS011;69633;47.066;15.450;2023-09-19T05:40:27;2.90;;;1.50;;
80320;SDS011;69633;47.066;15.450;2023-09-19T05:42:53;3.05;;;1.40;;
80320;SDS011;69633;47.066;15.450;2023-09-19T05:45:18;2.50;;;1.60;;
80320;SDS011;69633;47.066;15.450;2023-09-19T05:47:47;4.60;;;1.10;;
80320;SDS011;69633;47.066;15.450;2023-09-19T05:50:14;5.88;;;1.60;;
80320;SDS011;69633;47.066;15.450;2023-09-19T05:52:41;5.18;;;1.52;;
80320;SDS011;69633;47.066;15.450;2023-09-19T05:55:08;3.85;;;1.50;;
80320;SDS011;69633;47.066;15.450;2023-09-19T05:57:34;10.18;;;5.18;;
80320;SDS011;69633;47.066;15.450;2023-09-19T06:00:00;8.30;;;2.70;;
80320;SDS011;69633;47.066;15.450;2023-09-19T06:02:25;3.60;;;1.30;;
80320;SDS011;69633;47.066;15.450;2023-09-19T06:04:55;3.65;;;1.50;;
80320;SDS011;69633;47.066;15.450;2023-09-19T06:07:21;4.00;;;1.20;;
80320;SDS011;69633;47.066;15.450;2023-09-19T06:09:48;5.38;;;1.42;;
80320;SDS011;69633;47.066;15.450;2023-09-19T06:12:13;4.38;;;1.67;;
80320;SDS011;69633;47.066;15.450;2023-09-19T06:14:40;3.88;;;1.83;;
80320;SDS011;69633;47.066;15.450;2023-09-19T06:17:06;5.50;;;1.77;;
80320;SDS011;69633;47.066;15.450;2023-09-19T06:19:31;7.25;;;2.15;;
80320;SDS011;69633;47.066;15.450;2023-09-19T06:21:57;5.10;;;1.80;;
80320;SDS011;69633;47.066;15.450;2023-09-19T06:24:24;3.97;;;1.55;;
80320;SDS011;69633;47.066;15.450;2023-09-19T06:26:50;6.85;;;2.00;;
80320;SDS011;69633;47.066;15.450;2023-09-19T06:29:17;6.75;;;2.10;;
80320;SDS011;69633;47.066;15.450;2023-09-19T06:31:43;7.72;;;1.80;;
80320;SDS011;69633;47.066;15.450;2023-09-19T06:34:10;5.78;;;2.03;;
80320;SDS011;69633;47.066;15.450;2023-09-19T06:36:35;5.63;;;1.90;;
80320;SDS011;69633;47.066;15.450;2023-09-19T06:39:01;4.88;;;1.75;;
80320;SDS011;69633;47.066;15.450;2023-09-19T06:41:29;3.88;;;1.95;;
80320;SDS011;69633;47.066;15.450;2023-09-19T06:43:55;8.65;;;2.05;;
80320;SDS011;69633;47.066;15.450;2023-09-19T06:46:20;6.05;;;2.05;;
80320;SDS011;69633;47.066;15.450;2023-09-19T06:48:46;4.40;;;1.80;;
80320;SDS011;69633;47.066;15.450;2023-09-19T06:51:12;4.32;;;1.98;;
80320;SDS011;69633;47.066;15.450;2023-09-19T06:53:40;4.57;;;1.80;;
80320;SDS011;69633;47.066;15.450;2023-09-19T06:56:06;4.30;;;1.67;;
80320;SDS011;69633;47.066;15.450;2023-09-19T06:58:31;5.93;;;1.90;;
80320;SDS011;69633;47.066;15.450;2023-09-19T07:00:57;5.88;;;2.20;;
80320;SDS011;69633;47.066;15.450;2023-09-19T07:03:22;5.88;;;2.20;;
80320;SDS011;69633;47.066;15.450;2023-09-19T07:05:51;4.97;;;2.03;;
80320;SDS011;69633;47.066;15.450;2023-09-19T07:08:17;5.95;;;2.13;;
80320;SDS011;69633;47.066;15.450;2023-09-19T07:10:45;4.75;;;2.35;;
80320;SDS011;69633;47.066;15.450;2023-09-19T07:13:13;6.93;;;2.53;;
80320;SDS011;69633;47.066;15.450;2023-09-19T07:15:42;6.63;;;2.10;;
80320;SDS011;69633;47.066;15.450;2023-09-19T07:18:15;4.93;;;2.08;;
80320;SDS011;69633;47.066;15.450;2023-09-19T07:20:45;7.47;;;2.35;;
80320;SDS011;69633;47.066;15.450;2023-09-19T07:25:43;6.75;;;1.70;;
80320;SDS011;69633;47.066;15.450;2023-09-19T07:28:09;3.45;;;1.90;;
80320;SDS011;69633;47.066;15.450;2023-09-19T07:30:37;9.10;;;2.17;;
80320;SDS011;69633;47.066;15.450;2023-09-19T07:33:04;10.55;;;1.77;;
80320;SDS011;69633;47.066;15.450;2023-09-19T07:35:30;5.15;;;2.05;;
80320;SDS011;69633;47.066;15.450;2023-09-19T07:37:56;3.78;;;1.63;;
80320;SDS011;69633;47.066;15.450;2023-09-19T07:40:23;6.47;;;1.50;;
80320;SDS011;69633;47.066;15.450;2023-09-19T07:42:52;8.13;;;2.00;;
80320;SDS011;69633;47.066;15.450;2023-09-19T07:45:17;6.68;;;1.90;;
80320;SDS011;69633;47.066;15.450;2023-09-19T07:47:44;5.30;;;1.67;;
80320;SDS011;69633;47.066;15.450;2023-09-19T07:50:10;4.43;;;1.90;;
80320;SDS011;69633;47.066;15.450;2023-09-19T07:52:36;7.45;;;1.77;;
80320;SDS011;69633;47.066;15.450;2023-09-19T07:55:04;4.57;;;1.70;;
80320;SDS011;69633;47.066;15.450;2023-09-19T07:57:34;4.88;;;1.83;;
80320;SDS011;69633;47.066;15.450;2023-09-19T08:00:02;5.93;;;1.90;;
80320;SDS011;69633;47.066;15.450;2023-09-19T08:02:30;7.45;;;2.10;;
80320;SDS011;69633;47.066;15.450;2023-09-19T08:04:59;6.65;;;2.30;;
80320;SDS011;69633;47.066;15.450;2023-09-19T08:07:26;5.65;;;1.80;;
80320;SDS011;69633;47.066;15.450;2023-09-19T08:09:53;7.30;;;3.17;;
80320;SDS011;69633;47.066;15.450;2023-09-19T08:12:19;7.40;;;1.90;;
80320;SDS011;69633;47.066;15.450;2023-09-19T08:14:49;5.50;;;2.13;;
80320;SDS011;69633;47.066;15.450;2023-09-19T08:17:15;5.60;;;2.20;;
80320;SDS011;69633;47.066;15.450;2023-09-19T08:19:40;7.40;;;2.75;;
80320;SDS011;69633;47.066;15.450;2023-09-19T08:22:07;7.53;;;2.35;;
80320;SDS011;69633;47.066;15.450;2023-09-19T08:24:35;4.32;;;2.58;;
80320;SDS011;69633;47.066;15.450;2023-09-19T08:27:01;8.05;;;2.72;;
80320;SDS011;69633;47.066;15.450;2023-09-19T08:29:30;7.88;;;2.33;;
80320;SDS011;69633;47.066;15.450;2023-09-19T08:31:56;5.35;;;1.98;;
80320;SDS011;69633;47.066;15.450;2023-09-19T08:34:23;4.68;;;2.20;;
80320;SDS011;69633;47.066;15.450;2023-09-19T08:36:55;8.38;;;2.45;;
80320;SDS011;69633;47.066;15.450;2023-09-19T08:39:23;5.25;;;2.00;;
80320;SDS011;69633;47.066;15.450;2023-09-19T08:41:49;5.90;;;2.00;;
80320;SDS011;69633;47.066;15.450;2023-09-19T08:44:21;5.10;;;1.85;;
80320;SDS011;69633;47.066;15.450;2023-09-19T08:46:47;5.50;;;2.40;;
80320;SDS011;69633;47.066;15.450;2023-09-19T08:49:26;6.22;;;2.35;;
80320;SDS011;69633;47.066;15.450;2023-09-19T08:52:07;8.85;;;2.75;;
80320;SDS011;69633;47.066;15.450;2023-09-19T08:57:07;5.00;;;2.40;;
80320;SDS011;69633;47.066;15.450;2023-09-19T08:59:37;8.23;;;2.22;;
80320;SDS011;69633;47.066;15.450;2023-09-19T09:02:08;9.48;;;2.00;;
80320;SDS011;69633;47.066;15.450;2023-09-19T09:04:38;4.60;;;1.67;;
80320;SDS011;69633;47.066;15.450;2023-09-19T09:07:12;4.22;;;1.70;;
80320;SDS011;69633;47.066;15.450;2023-09-19T09:09:38;5.93;;;2.00;;
80320;SDS011;69633;47.066;15.450;2023-09-19T09:12:16;5.13;;;1.60;;
80320;SDS011;69633;47.066;15.450;2023-09-19T09:14:46;6.35;;;1.80;;
80320;SDS011;69633;47.066;15.450;2023-09-19T09:17:15;4.88;;;1.67;;
80320;SDS011;69633;47.066;15.450;2023-09-19T09:19:41;4.38;;;1.67;;
80320;SDS011;69633;47.066;15.450;2023-09-19T09:22:11;6.13;;;2.10;;
80320;SDS011;69633;47.066;15.450;2023-09-19T09:24:37;2.63;;;1.55;;
80320;SDS011;69633;47.066;15.450;2023-09-19T09:27:30;2.88;;;1.73;;
80320;SDS011;69633;47.066;15.450;2023-09-19T09:29:57;2.78;;;1.40;;
80320;SDS011;69633;47.066;15.450;2023-09-19T09:34:57;3.80;;;1.65;;
80320;SDS011;69633;47.066;15.450;2023-09-19T09:37:24;4.10;;;1.95;;
80320;SDS011;69633;47.066;15.450;2023-09-19T09:39:59;3.63;;;1.92;;
80320;SDS011;69633;47.066;15.450;2023-09-19T09:42:44;3.30;;;1.77;;
80320;SDS011;69633;47.066;15.450;2023-09-19T09:45:21;2.88;;;1.73;;
80320;SDS011;69633;47.066;15.450;2023-09-19T09:47:53;6.25;;;2.10;;
80320;SDS011;69633;47.066;15.450;2023-09-19T09:50:23;4.03;;;1.80;;
80320;SDS011;69633;47.066;15.450;2023-09-19T09:52:57;4.13;;;2.30;;
80320;SDS011;69633;47.066;15.450;2023-09-19T09:55:56;6.95;;;2.20;;
80320;SDS011;69633;47.066;15.450;2023-09-19T09:58:34;3.55;;;1.85;;
80320;SDS011;69633;47.066;15.450;2023-09-19T10:01:02;5.22;;;1.73;;
80320;SDS011;69633;47.066;15.450;2023-09-19T10:06:03;3.15;;;1.60;;
80320;SDS011;69633;47.066;15.450;2023-09-19T10:08:36;2.70;;;1.38;;
80320;SDS011;69633;47.066;15.450;2023-09-19T10:11:14;3.05;;;1.50;;
80320;SDS011;69633;47.066;15.450;2023-09-19T10:13:41;4.55;;;1.35;;
80320;SDS011;69633;47.066;15.450;2023-09-19T10:16:07;3.30;;;1.38;;
80320;SDS011;69633;47.066;15.450;2023-09-19T10:18:36;4.45;;;1.70;;
80320;SDS011;69633;47.066;15.450;2023-09-19T10:21:04;3.58;;;2.05;;
80320;SDS011;69633;47.066;15.450;2023-09-19T10:23:31;4.07;;;1.45;;
80320;SDS011;69633;47.066;15.450;2023-09-19T10:25:59;3.97;;;1.48;;
80320;SDS011;69633;47.066;15.450;2023-09-19T10:28:27;5.10;;;1.30;;
80320;SDS011;69633;47.066;15.450;2023-09-19T10:30:54;3.13;;;1.70;;
80320;SDS011;69633;47.066;15.450;2023-09-19T10:33:22;3.72;;;1.60;;
80320;SDS011;69633;47.066;15.450;2023-09-19T10:35:51;3.55;;;1.65;;
80320;SDS011;69633;47.066;15.450;2023-09-19T10:38:22;3.13;;;1.65;;
80320;SDS011;69633;47.066;15.450;2023-09-19T10:40:50;4.88;;;1.50;;
80320;SDS011;69633;47.066;15.450;2023-09-19T10:43:20;4.75;;;1.25;;
80320;SDS011;69633;47.066;15.450;2023-09-19T10:45:47;3.00;;;1.40;;
80320;SDS011;69633;47.066;15.450;2023-09-19T10:48:17;26.83;;;3.22;;
80320;SDS011;69633;47.066;15.450;2023-09-19T10:53:24;2.45;;;1.42;;
80320;SDS011;69633;47.066;15.450;2023-09-19T10:55:53;4.82;;;1.30;;
80320;SDS011;69633;47.066;15.450;2023-09-19T10:58:26;2.90;;;1.27;;
80320;SDS011;69633;47.066;15.450;2023-09-19T11:00:54;3.00;;;1.20;;
80320;SDS011;69633;47.066;15.450;2023-09-19T11:03:37;4.10;;;1.33;;
80320;SDS011;69633;47.066;15.450;2023-09-19T11:06:17;2.25;;;1.27;;
80320;SDS011;69633;47.066;15.450;2023-09-19T11:08:53;6.90;;;1.60;;
80320;SDS011;69633;47.066;15.450;2023-09-19T11:25:41;2.72;;;1.33;;
80320;SDS011;69633;47.066;15.450;2023-09-19T11:30:41;3.38;;;1.23;;
80320;SDS011;69633;47.066;15.450;2023-09-19T11:36:15;2.58;;;1.15;;
80320;SDS011;69633;47.066;15.450;2023-09-19T11:46:32;4.03;;;1.20;;
80320;SDS011;69633;47.066;15.450;2023-09-19T11:49:05;3.85;;;1.40;;
80320;SDS011;69633;47.066;15.450;2023-09-19T11:51:41;2.88;;;0.95;;
80320;SDS011;69633;47.066;15.450;2023-09-19T11:54:13;2.72;;;1.10;;
80320;SDS011;69633;47.066;15.450;2023-09-19T11:56:44;3.63;;;1.33;;
80320;SDS011;69633;47.066;15.450;2023-09-19T11:59:10;2.67;;;1.38;;
80320;SDS011;69633;47.066;15.450;2023-09-19T12:01:37;3.03;;;1.23;;
80320;SDS011;69633;47.066;15.450;2023-09-19T12:04:11;2.42;;;1.10;;
80320;SDS011;69633;47.066;15.450;2023-09-19T12:06:37;1.77;;;1.17;;
80320;SDS011;69633;47.066;15.450;2023-09-19T12:09:11;8.77;;;1.65;;
80320;SDS011;69633;47.066;15.450;2023-09-19T12:11:41;1.75;;;1.05;;
80320;SDS011;69633;47.066;15.450;2023-09-19T12:14:09;2.80;;;1.52;;
80320;SDS011;69633;47.066;15.450;2023-09-19T12:16:35;4.88;;;1.63;;
80320;SDS011;69633;47.066;15.450;2023-09-19T12:19:20;3.90;;;1.95;;
80320;SDS011;69633;47.066;15.450;2023-09-19T12:22:08;3.15;;;1.10;;
80320;SDS011;69633;47.066;15.450;2023-09-19T12:24:34;2.13;;;1.00;;
80320;SDS011;69633;47.066;15.450;2023-09-19T12:27:06;2.78;;;1.45;;
80320;SDS011;69633;47.066;15.450;2023-09-19T12:29:41;6.97;;;1.50;;
80320;SDS011;69633;47.066;15.450;2023-09-19T12:32:07;3.50;;;1.42;;
80320;SDS011;69633;47.066;15.450;2023-09-19T12:34:33;4.78;;;1.48;;
80320;SDS011;69633;47.066;15.450;2023-09-19T12:39:40;4.55;;;1.48;;
80320;SDS011;69633;47.066;15.450;2023-09-19T12:42:13;4.20;;;1.50;;
80320;SDS011;69633;47.066;15.450;2023-09-19T12:45:14;3.55;;;1.23;;
80320;SDS011;69633;47.066;15.450;2023-09-19T12:47:34;2.47;;;1.30;;
80320;SDS011;69633;47.066;15.450;2023-09-19T12:52:36;5.03;;;1.30;;
80320;SDS011;69633;47.066;15.450;2023-09-19T12:55:03;3.13;;;1.50;;
80320;SDS011;69633;47.066;15.450;2023-09-19T12:57:30;3.75;;;1.48;;
80320;SDS011;69633;47.066;15.450;2023-09-19T12:59:59;4.22;;;1.30;;
80320;SDS011;69633;47.066;15.450;2023-09-19T13:02:30;3.17;;;1.17;;
80320;SDS011;69633;47.066;15.450;2023-09-19T13:04:56;4.97;;;1.48;;
80320;SDS011;69633;47.066;15.450;2023-09-19T13:07:43;2.90;;;1.20;;
80320;SDS011;69633;47.066;15.450;2023-09-19T13:10:11;2.88;;;1.30;;
80320;SDS011;69633;47.066;15.450;2023-09-19T13:12:40;3.25;;;1.10;;
80320;SDS011;69633;47.066;15.450;2023-09-19T13:15:11;4.40;;;1.20;;
80320;SDS011;69633;47.066;15.450;2023-09-19T13:17:56;2.28;;;1.30;;
80320;SDS011;69633;47.066;15.450;2023-09-19T13:20:26;3.15;;;1.38;;
80320;SDS011;69633;47.066;15.450;2023-09-19T13:22:53;4.00;;;1.60;;
80320;SDS011;69633;47.066;15.450;2023-09-19T13:25:20;4.63;;;1.25;;
80320;SDS011;69633;47.066;15.450;2023-09-19T13:27:56;3.78;;;1.50;;
80320;SDS011;69633;47.066;15.450;2023-09-19T13:30:23;3.08;;;1.50;;
80320;SDS011;69633;47.066;15.450;2023-09-19T13:32:50;3.45;;;1.25;;
80320;SDS011;69633;47.066;15.450;2023-09-19T13:35:17;5.43;;;1.60;;
80320;SDS011;69633;47.066;15.450;2023-09-19T13:37:43;3.13;;;1.30;;
80320;SDS011;69633;47.066;15.450;2023-09-19T13:40:16;6.07;;;1.83;;
80320;SDS011;69633;47.066;15.450;2023-09-19T13:42:42;3.28;;;1.15;;
80320;SDS011;69633;47.066;15.450;2023-09-19T13:45:08;4.25;;;1.38;;
80320;SDS011;69633;47.066;15.450;2023-09-19T13:47:37;5.70;;;1.30;;
80320;SDS011;69633;47.066;15.450;2023-09-19T13:50:03;6.43;;;1.25;;
80320;SDS011;69633;47.066;15.450;2023-09-19T13:52:30;4.00;;;1.70;;
80320;SDS011;69633;47.066;15.450;2023-09-19T13:54:56;6.38;;;1.52;;
80320;SDS011;69633;47.066;15.450;2023-09-19T13:57:23;3.30;;;1.23;;
80320;SDS011;69633;47.066;15.450;2023-09-19T13:59:49;2.97;;;1.50;;
80320;SDS011;69633;47.066;15.450;2023-09-19T14:02:14;4.50;;;1.27;;
80320;SDS011;69633;47.066;15.450;2023-09-19T14:04:43;3.25;;;1.60;;
80320;SDS011;69633;47.066;15.450;2023-09-19T14:07:09;19.00;;;2.60;;
80320;SDS011;69633;47.066;15.450;2023-09-19T14:09:35;3.75;;;1.60;;
80320;SDS011;69633;47.066;15.450;2023-09-19T14:12:01;4.05;;;1.25;;
80320;SDS011;69633;47.066;15.450;2023-09-19T14:14:26;5.15;;;1.55;;
80320;SDS011;69633;47.066;15.450;2023-09-19T14:16:52;2.15;;;1.27;;
80320;SDS011;69633;47.066;15.450;2023-09-19T14:19:18;4.05;;;1.67;;
80320;SDS011;69633;47.066;15.450;2023-09-19T14:21:43;3.75;;;1.48;;
80320;SDS011;69633;47.066;15.450;2023-09-19T14:24:09;2.97;;;1.45;;
80320;SDS011;69633;47.066;15.450;2023-09-19T14:26:38;3.78;;;1.30;;
80320;SDS011;69633;47.066;15.450;2023-09-19T14:29:04;2.95;;;1.40;;
80320;SDS011;69633;47.066;15.450;2023-09-19T14:31:32;5.78;;;1.33;;
80320;SDS011;69633;47.066;15.450;2023-09-19T14:33:59;3.38;;;1.20;;
80320;SDS011;69633;47.066;15.450;2023-09-19T14:36:24;5.40;;;1.55;;
80320;SDS011;69633;47.066;15.450;2023-09-19T14:38:55;3.00;;;1.60;;
80320;SDS011;69633;47.066;15.450;2023-09-19T14:41:21;3.40;;;1.52;;
80320;SDS011;69633;47.066;15.450;2023-09-19T14:43:48;11.88;;;1.80;;
80320;SDS011;69633;47.066;15.450;2023-09-19T14:46:14;13.95;;;2.13;;
80320;SDS011;69633;47.066;15.450;2023-09-19T14:48:41;2.90;;;1.30;;
80320;SDS011;69633;47.066;15.450;2023-09-19T14:51:07;2.85;;;1.42;;
80320;SDS011;69633;47.066;15.450;2023-09-19T14:53:37;8.18;;;1.75;;
80320;SDS011;69633;47.066;15.450;2023-09-19T14:56:04;2.40;;;1.20;;
80320;SDS011;69633;47.066;15.450;2023-09-19T14:58:31;3.38;;;1.40;;
80320;SDS011;69633;47.066;15.450;2023-09-19T15:01:05;3.25;;;1.40;;
80320;SDS011;69633;47.066;15.450;2023-09-19T15:03:32;3.28;;;1.40;;
80320;SDS011;69633;47.066;15.450;2023-09-19T15:06:01;3.17;;;1.45;;
80320;SDS011;69633;47.066;15.450;2023-09-19T15:08:30;3.13;;;1.42;;
80320;SDS011;69633;47.066;15.450;2023-09-19T15:10:59;3.33;;;1.25;;
80320;SDS011;69633;47.066;15.450;2023-09-19T15:13:29;3.65;;;1.23;;
80320;SDS011;69633;47.066;15.450;2023-09-19T15:15:59;5.72;;;1.20;;
80320;SDS011;69633;47.066;15.450;2023-09-19T15:18:30;3.13;;;1.40;;
80320;SDS011;69633;47.066;15.450;2023-09-19T15:21:02;4.45;;;1.17;;
80320;SDS011;69633;47.066;15.450;2023-09-19T15:23:36;4.10;;;1.50;;
80320;SDS011;69633;47.066;15.450;2023-09-19T15:26:03;5.90;;;1.50;;
80320;SDS011;69633;47.066;15.450;2023-09-19T15:28:30;3.85;;;1.42;;
80320;SDS011;69633;47.066;15.450;2023-09-19T15:31:00;4.45;;;1.60;;
80320;SDS011;69633;47.066;15.450;2023-09-19T15:33:31;4.93;;;1.73;;
80320;SDS011;69633;47.066;15.450;2023-09-19T15:36:05;3.28;;;1.30;;
80320;SDS011;69633;47.066;15.450;2023-09-19T15:41:37;2.53;;;1.23;;